Time;durP1;ratioP1;P1;durP2;ratioP2;P2;SDS_P1;SDS_P2;PMS_P1;PMS_P2;Temp;Humidity;BMP_temperature;BMP_pressure;BME280_temperature;BME280_humidity;BME280_pressure;Samples;Min_cycle;Max_cycle;Signal;HPM_P1;HPM_P2
2022/09/08 00:02:07;;;;;;;16.57;8.90;;;;;;;17.69;91.60;100915.97;5024758;28;20033;-90
2022/09/08 00:04:33;;;;;;;16.13;9.33;;;;;;;17.55;92.60;100914.00;5029578;28;20276;-91
2022/09/08 00:07:00;;;;;;;15.95;9.25;;;;;;;17.47;93.26;100910.94;5045061;28;20358;-90
2022/09/08 00:09:25;;;;;;;15.35;8.88;;;;;;;17.38;92.87;100895.69;5028165;28;20559;-90
2022/09/08 00:11:51;;;;;;;16.17;9.00;;;;;;;17.30;93.91;100898.72;5029003;28;20136;-90
2022/09/08 00:14:17;;;;;;;14.60;8.50;;;;;;;17.23;93.87;100893.84;5036964;28;20025;-90
2022/09/08 00:16:42;;;;;;;14.85;8.65;;;;;;;17.16;95.49;100890.69;5040378;28;20127;-91
2022/09/08 00:19:08;;;;;;;17.13;9.07;;;;;;;17.13;95.63;100882.97;5032989;28;20084;-91
2022/09/08 00:21:34;;;;;;;18.30;9.05;;;;;;;17.09;96.73;100884.06;5039556;28;20030;-90
2022/09/08 00:23:59;;;;;;;17.55;9.43;;;;;;;17.12;97.57;100898.78;5029571;28;20025;-91
2022/09/08 00:26:25;;;;;;;15.07;9.07;;;;;;;17.10;98.07;100906.72;5036094;28;20029;-91
2022/09/08 00:28:51;;;;;;;17.90;9.90;;;;;;;17.08;99.00;100907.69;5027667;28;20025;-92
2022/09/08 00:34:54;;;;;;;18.98;9.25;;;;;;;16.96;99.97;100890.84;5004118;28;20045;-92
2022/09/08 00:37:46;;;;;;;15.90;8.60;;;;;;;16.87;100.00;100901.75;5024391;28;20051;-91
2022/09/08 00:40:36;;;;;;;18.52;9.05;;;;;;;16.68;100.00;100872.16;5032342;28;20041;-90
2022/09/08 00:43:12;;;;;;;15.68;9.55;;;;;;;16.62;100.00;100875.91;5014932;28;20037;-90
2022/09/08 00:46:03;;;;;;;19.17;9.00;;;;;;;16.57;100.00;100878.75;5023917;28;20037;-90
2022/09/08 00:48:41;;;;;;;18.17;9.02;;;;;;;16.53;100.00;100892.88;5023097;28;20064;-90
2022/09/08 00:51:13;;;;;;;19.58;9.55;;;;;;;16.58;100.00;100906.56;5025229;28;20038;-90
2022/09/08 00:53:39;;;;;;;17.60;9.07;;;;;;;16.44;100.00;100880.25;5028861;28;20064;-90
2022/09/08 00:56:06;;;;;;;17.38;8.95;;;;;;;16.32;100.00;100859.88;5023350;28;20037;-90
2022/09/08 00:58:42;;;;;;;19.25;9.25;;;;;;;16.34;100.00;100858.03;5020967;28;20030;-91
2022/09/08 01:01:14;;;;;;;19.67;8.70;;;;;;;16.40;100.00;100862.13;5020855;28;20494;-90
2022/09/08 01:03:41;;;;;;;18.02;8.23;;;;;;;16.25;100.00;100852.38;5029570;28;20041;-90
2022/09/08 01:12:43;;;;;;;15.70;8.65;;;;;;;16.31;100.00;100858.16;5030290;28;20028;-91
2022/09/08 01:12:46;;;;;;;16.08;7.85;;;;;;;16.19;100.00;100848.28;5024153;28;20112;-91
2022/09/08 01:15:34;;;;;;;16.80;8.00;;;;;;;16.11;100.00;100839.94;5018432;28;20045;-91
2022/09/08 01:18:12;;;;;;;16.75;8.20;;;;;;;16.11;100.00;100843.41;5041050;28;20226;-94
2022/09/08 01:21:36;;;;;;;;;;;;;;;;;;;;;
2022/09/08 01:24:26;;;;;;;14.13;6.90;;;;;;;16.15;100.00;100844.13;4996900;28;20043;-92
2022/09/08 01:27:48;;;;;;;15.55;7.00;;;;;;;16.13;100.00;100832.88;5028105;28;20036;-92
2022/09/08 01:30:39;;;;;;;11.55;6.50;;;;;;;16.01;100.00;100800.31;5006447;28;20490;-94
2022/09/08 01:33:39;;;;;;;14.23;6.68;;;;;;;15.99;100.00;100803.91;5022976;28;20037;-94
2022/09/08 01:37:00;;;;;;;13.90;6.45;;;;;;;16.05;100.00;100806.25;5032864;28;20045;-92
2022/09/08 01:40:05;;;;;;;;;;;;;;;;;;;;;
2022/09/08 01:47:01;;;;;;;12.50;5.82;;;;;;;15.96;100.00;100775.31;4908093;29;20549;-92
2022/09/08 01:50:02;;;;;;;12.00;4.97;;;;;;;15.97;100.00;100779.59;4900165;28;20527;-92
2022/09/08 01:56:01;;;;;;;10.57;4.40;;;;;;;15.92;100.00;100785.06;4951563;28;20046;-94
2022/09/08 01:59:00;;;;;;;15.18;5.55;;;;;;;16.02;100.00;100804.63;4946075;28;20038;-94
2022/09/08 02:05:03;;;;;;;9.77;5.05;;;;;;;15.96;100.00;100785.78;4956035;28;20084;-92
2022/09/08 02:11:03;;;;;;;9.90;4.60;;;;;;;15.94;100.00;100783.22;4946868;28;20583;-94
2022/09/08 02:14:13;;;;;;;;;;;;;;;;;;;;;
2022/09/08 02:17:02;;;;;;;11.90;4.60;;;;;;;15.86;100.00;100764.44;4984670;28;20030;-92
2022/09/08 02:20:04;;;;;;;12.07;5.00;;;;;;;15.79;100.00;100742.09;4992038;28;20034;-92
2022/09/08 02:23:21;;;;;;;;;;;;;;;;;;;;;
2022/09/08 02:26:28;;;;;;;9.25;4.55;;;;;;;15.82;100.00;100734.13;4981625;28;20038;-93
2022/09/08 02:29:03;;;;;;;8.63;4.72;;;;;;;15.92;100.00;100740.59;5037281;28;20557;-94
2022/09/08 02:32:01;;;;;;;7.75;5.03;;;;;;;15.86;100.00;100735.66;5046739;28;20025;-93
2022/09/08 02:38:05;;;;;;;14.30;4.60;;;;;;;15.84;100.00;100741.88;4951876;28;20037;-94
2022/09/08 02:40:37;;;;;;;12.25;4.60;;;;;;;15.78;100.00;100724.72;4928128;28;20543;-93
2022/09/08 02:43:04;;;;;;;11.45;5.53;;;;;;;15.74;100.00;100723.19;4948786;28;20045;-93
2022/09/08 02:46:17;;;;;;;;;;;;;;;;;;;;;
2022/09/08 02:49:03;;;;;;;9.32;4.90;;;;;;;15.77;100.00;100731.72;5041866;28;20589;-92
2022/09/08 02:52:12;;;;;;;;;;;;;;;;;;;;;
2022/09/08 02:55:03;;;;;;;8.93;4.88;;;;;;;15.76;100.00;100729.19;5044705;28;20021;-91
2022/09/08 02:57:54;;;;;;;;;;;;;;;;;;;;;
2022/09/08 03:01:11;;;;;;;14.35;5.28;;;;;;;15.80;100.00;100739.44;5055834;28;20495;-91
2022/09/08 03:07:21;;;;;;;8.80;4.63;;;;;;;15.86;100.00;100740.91;5031730;28;20091;-92
2022/09/08 03:13:03;;;;;;;8.85;4.85;;;;;;;15.88;100.00;100746.91;5042946;28;20056;-92
2022/09/08 03:15:34;;;;;;;8.73;4.50;;;;;;;15.85;100.00;100749.66;5028271;28;20029;-91
2022/09/08 03:18:20;;;;;;;12.20;5.00;;;;;;;15.83;100.00;100750.66;5025940;28;20107;-91
2022/09/08 03:21:13;;;;;;;12.90;4.40;;;;;;;15.82;100.00;100747.22;5056864;28;20033;-93
2022/09/08 03:28:04;;;;;;;11.68;5.22;;;;;;;15.76;100.00;100739.66;4953317;28;20118;-94
2022/09/08 03:42:02;;;;;;;;;;;;;;;;;;;;;
2022/09/08 03:48:08;;;;;;;16.35;7.68;;;;;;;15.71;100.00;100734.63;4873810;29;20063;-93
2022/09/08 03:51:42;;;;;;;;;;;;;;;;;;;;;
2022/09/08 03:58:01;;;;;;;15.80;7.40;;;;;;;15.69;100.00;100759.97;4894226;29;20043;-93
2022/09/08 04:01:11;;;;;;;17.65;7.97;;;;;;;15.75;100.00;100775.41;4932567;29;20078;-93
2022/09/08 04:04:09;;;;;;;17.20;7.63;;;;;;;15.63;100.00;100751.56;4951792;28;20157;-93
2022/09/08 04:15:54;;;;;;;;;;;;;;;;;;;;;
2022/09/08 04:18:20;;;;;;;10.85;6.28;;;;;;;15.63;100.00;100749.81;5000691;28;20040;-93
2022/09/08 04:21:17;;;;;;;10.75;6.00;;;;;;;15.60;100.00;100747.34;5036706;28;20017;-93
2022/09/08 04:24:12;;;;;;;13.70;5.80;;;;;;;15.54;100.00;100744.16;5034406;28;20049;-93
2022/09/08 04:30:30;;;;;;;12.77;5.60;;;;;;;15.42;100.00;100742.94;4946799;28;20381;-93
2022/09/08 04:39:50;;;;;;;11.48;5.15;;;;;;;15.43;100.00;100750.69;5033912;28;20413;-93
2022/09/08 04:42:44;;;;;;;;;;;;;;;;;;;;;
2022/09/08 04:45:41;;;;;;;11.75;4.93;;;;;;;15.38;100.00;100765.72;5043294;28;20040;-93
2022/09/08 04:48:10;;;;;;;12.10;5.00;;;;;;;15.26;100.00;100748.00;5043534;28;20632;-93
2022/09/08 04:51:52;;;;;;;;;;;;;;;;;;;;;
2022/09/08 04:55:10;;;;;;;;;;;;;;;;;;;;;
2022/09/08 04:58:19;;;;;;;;;;;;;;;;;;;;;
2022/09/08 05:05:21;;;;;;;;;;;;;;;;;;;;;
2022/09/08 05:09:03;;;;;;;14.70;5.20;;;;;;;15.43;100.00;100776.81;5006932;28;20038;-93
2022/09/08 05:16:27;;;;;;;;;;;;;;;;;;;;;
2022/09/08 05:19:17;;;;;;;15.25;6.25;;;;;;;15.54;100.00;100789.44;5021034;28;20042;-94
2022/09/08 05:21:58;;;;;;;17.85;6.50;;;;;;;15.42;100.00;100761.22;5009578;28;20390;-93
2022/09/08 05:24:44;;;;;;;13.50;6.18;;;;;;;15.54;100.00;100785.97;5020484;28;20029;-92
2022/09/08 05:27:46;;;;;;;;;;;;;;;;;;;;;
2022/09/08 05:36:58;;;;;;;16.88;6.65;;;;;;;15.41;100.00;100767.34;4956128;28;20694;-92
2022/09/08 05:39:31;;;;;;;16.98;6.95;;;;;;;15.48;100.00;100789.69;4937584;29;20063;-91
2022/09/08 05:42:26;;;;;;;;;;;;;;;;;;;;;
2022/09/08 05:45:38;;;;;;;16.13;6.82;;;;;;;15.42;100.00;100782.94;4969265;28;20033;-92
2022/09/08 05:49:03;;;;;;;;;;;;;;;;;;;;;
2022/09/08 05:51:59;;;;;;;;;;;;;;;;;;;;;
2022/09/08 05:54:27;;;;;;;15.48;7.43;;;;;;;15.39;100.00;100766.56;4999402;28;20059;-92
2022/09/08 05:56:54;;;;;;;13.88;6.97;;;;;;;15.33;100.00;100761.63;5013029;28;20073;-92
2022/09/08 05:59:31;;;;;;;15.07;6.93;;;;;;;15.31;100.00;100763.44;5012262;28;20111;-93
2022/09/08 06:01:59;;;;;;;13.68;7.28;;;;;;;15.35;100.00;100757.19;5010450;28;20021;-92
2022/09/08 06:04:24;;;;;;;17.05;8.30;;;;;;;15.43;100.00;100768.97;5004366;28;20121;-91
2022/09/08 06:06:57;;;;;;;18.95;8.18;;;;;;;15.47;100.00;100780.16;5028327;28;20096;-94
2022/09/08 06:09:22;;;;;;;18.67;8.05;;;;;;;15.41;100.00;100773.44;5010255;28;20053;-94
2022/09/08 06:11:48;;;;;;;16.67;7.65;;;;;;;15.44;100.00;100780.25;5012247;28;20111;-94
2022/09/08 06:14:15;;;;;;;18.60;7.85;;;;;;;15.51;100.00;100786.91;5011027;28;20030;-94
2022/09/08 06:16:44;;;;;;;18.48;7.97;;;;;;;15.47;100.00;100787.13;5027240;28;20029;-93
2022/09/08 06:19:11;;;;;;;14.25;7.68;;;;;;;15.50;100.00;100772.16;5025847;28;20033;-92
2022/09/08 06:21:36;;;;;;;15.60;7.93;;;;;;;15.45;100.00;100775.88;5037496;28;20104;-93
2022/09/08 06:26:58;;;;;;;20.05;8.80;;;;;;;15.56;100.00;100790.19;5028513;28;20033;-93
2022/09/08 06:29:49;;;;;;;18.80;8.63;;;;;;;15.48;100.00;100766.16;5011430;28;20040;-94
2022/09/08 06:32:55;;;;;;;18.33;8.52;;;;;;;15.61;100.00;100783.00;5010043;28;20025;-96
2022/09/08 06:36:09;;;;;;;20.70;9.13;;;;;;;15.61;100.00;100784.78;5014897;28;20033;-94
2022/09/08 06:39:16;;;;;;;20.35;8.43;;;;;;;15.65;100.00;100778.47;5015996;28;20037;-94
2022/09/08 06:42:25;;;;;;;21.83;8.30;;;;;;;15.55;100.00;100762.41;5033514;28;20049;-96
2022/09/08 06:46:12;;;;;;;21.92;8.85;;;;;;;15.66;100.00;100786.25;5003380;28;20120;-95
2022/09/08 06:49:01;;;;;;;17.90;8.48;;;;;;;15.73;100.00;100798.13;4931477;29;20031;-95
2022/09/08 06:59:46;;;;;;;16.60;8.25;;;;;;;15.68;100.00;100778.34;4957092;28;20050;-96
2022/09/08 07:17:03;;;;;;;19.00;8.68;;;;;;;16.11;100.00;100801.56;4915741;29;20059;-95
2022/09/08 07:41:30;;;;;;;21.20;9.40;;;;;;;16.50;100.00;100788.38;4857051;29;20045;-96
2022/09/08 07:52:02;;;;;;;;;;;;;;;;;;;;;
2022/09/08 07:58:29;;;;;;;;;;;;;;;;;;;;;
2022/09/08 08:02:09;;;;;;;24.15;11.05;;;;;;;16.83;100.00;100800.72;4835035;29;20042;-96
2022/09/08 08:12:03;;;;;;;24.05;11.63;;;;;;;17.24;100.00;100801.22;4801067;29;20244;-95
2022/09/08 08:18:52;;;;;;;20.90;10.77;;;;;;;17.70;100.00;100818.03;4910446;29;20119;-95
2022/09/08 08:22:34;;;;;;;21.17;10.35;;;;;;;17.60;100.00;100819.44;4957914;28;20043;-96
2022/09/08 08:25:38;;;;;;;18.85;9.48;;;;;;;17.40;100.00;100823.06;4930185;29;20511;-96
2022/09/08 08:42:37;;;;;;;17.63;11.02;;;;;;;17.78;100.00;100818.47;4949943;28;20038;-94
2022/09/08 08:45:35;;;;;;;17.17;10.10;;;;;;;17.70;100.00;100816.25;4984666;28;20468;-93
2022/09/08 08:52:01;;;;;;;17.48;10.15;;;;;;;17.66;100.00;100827.84;5053443;28;20037;-94
2022/09/08 08:55:30;;;;;;;14.40;9.30;;;;;;;17.67;100.00;100823.44;5021788;28;20397;-93
2022/09/08 08:59:08;;;;;;;;;;;;;;;;;;;;;
2022/09/08 09:02:17;;;;;;;14.25;9.30;;;;;;;18.06;100.00;100837.03;5053590;28;20033;-93
2022/09/08 09:05:19;;;;;;;;;;;;;;;;;;;;;
2022/09/08 09:08:03;;;;;;;13.50;8.38;;;;;;;18.44;100.00;100827.00;5049980;28;20259;-92
2022/09/08 09:11:21;;;;;;;12.98;8.18;;;;;;;18.62;100.00;100826.94;5034982;28;20029;-93
2022/09/08 09:14:34;;;;;;;14.05;7.97;;;;;;;18.84;100.00;100830.00;5028575;28;20121;-92
2022/09/08 09:17:18;;;;;;;11.95;7.03;;;;;;;18.96;100.00;100828.47;5007570;28;20364;-92
2022/09/08 09:20:28;;;;;;;10.17;6.73;;;;;;;18.83;100.00;100825.72;5015364;28;20025;-92
2022/09/08 09:23:21;;;;;;;11.73;7.30;;;;;;;18.91;100.00;100823.47;5002490;28;20030;-92
2022/09/08 09:29:51;;;;;;;12.23;6.90;;;;;;;19.13;99.95;100825.69;4989034;28;20035;-91
2022/09/08 09:32:37;;;;;;;12.20;6.82;;;;;;;19.03;97.25;100816.66;5011452;28;20046;-91
2022/09/08 09:35:43;;;;;;;11.98;6.65;;;;;;;18.84;99.36;100809.84;5005195;28;20029;-92
2022/09/08 09:38:48;;;;;;;8.75;5.10;;;;;;;18.67;98.60;100819.66;4985109;28;20042;-91
2022/09/08 09:41:44;;;;;;;6.97;4.70;;;;;;;18.52;96.32;100831.84;4973036;28;20034;-91
2022/09/08 09:44:58;;;;;;;7.00;4.68;;;;;;;18.46;97.13;100826.94;4993152;28;20096;-91
2022/09/08 09:47:56;;;;;;;7.78;4.57;;;;;;;18.35;99.25;100824.06;5006458;28;20030;-91
2022/09/08 09:58:37;;;;;;;8.80;4.80;;;;;;;18.51;99.24;100823.09;5019600;28;20051;-91
2022/09/08 10:01:36;;;;;;;9.65;5.07;;;;;;;18.64;99.38;100819.81;5034102;28;20171;-92
2022/09/08 10:08:10;;;;;;;9.57;4.50;;;;;;;19.28;97.13;100819.50;5052151;28;20029;-93
2022/09/08 10:11:30;;;;;;;6.45;3.63;;;;;;;19.29;95.49;100806.28;5030556;28;20068;-93
2022/09/08 10:14:51;;;;;;;7.18;3.30;;;;;;;19.30;92.48;100823.75;5016148;28;20038;-92
2022/09/08 10:25:01;;;;;;;8.73;3.15;;;;;;;19.45;91.08;100824.56;4989621;28;20034;-92
2022/09/08 10:28:11;;;;;;;8.48;2.95;;;;;;;19.18;90.49;100813.09;4973140;28;20069;-92
2022/09/08 10:31:02;;;;;;;6.13;2.60;;;;;;;19.30;88.17;100822.91;4958078;28;20044;-90
2022/09/08 10:40:54;;;;;;;6.32;2.95;;;;;;;19.64;87.87;100805.94;4935877;28;20032;-90
2022/09/08 10:51:19;;;;;;;9.18;2.90;;;;;;;19.72;88.21;100793.13;4979849;28;20491;-90
2022/09/08 10:54:41;;;;;;;8.93;2.97;;;;;;;19.96;82.50;100812.66;4920194;29;20139;-90
2022/09/08 10:58:02;;;;;;;7.60;2.80;;;;;;;20.04;84.66;100809.56;4910696;29;20055;-90
2022/09/08 11:05:03;;;;;;;8.32;2.78;;;;;;;19.94;81.82;100809.28;4900497;29;20036;-91
2022/09/08 11:08:03;;;;;;;6.75;2.60;;;;;;;19.85;82.64;100804.63;4883094;29;20043;-90
2022/09/08 11:11:08;;;;;;;6.05;2.83;;;;;;;19.92;81.67;100802.44;4938011;28;20107;-91
2022/09/08 11:18:04;;;;;;;5.47;2.72;;;;;;;20.00;80.42;100790.47;4892061;29;20037;-90
2022/09/08 11:21:00;;;;;;;6.83;2.77;;;;;;;20.13;81.48;100778.22;4941780;28;20413;-90
2022/09/08 11:23:52;;;;;;;8.25;3.08;;;;;;;20.21;78.52;100805.81;5002305;28;20311;-91
2022/09/08 11:27:01;;;;;;;6.97;2.80;;;;;;;20.07;78.94;100811.97;5045834;28;20035;-91
2022/09/08 11:30:13;;;;;;;9.93;3.05;;;;;;;19.96;79.27;100811.81;5026191;28;20031;-89
2022/09/08 11:33:21;;;;;;;9.70;2.65;;;;;;;19.82;78.10;100804.78;5041266;28;20068;-92
2022/09/08 11:36:41;;;;;;;7.30;2.75;;;;;;;19.65;79.34;100792.69;5025611;28;20044;-91
2022/09/08 11:43:02;;;;;;;7.13;2.78;;;;;;;19.86;80.31;100776.50;5034950;28;20279;-91
2022/09/08 11:45:49;;;;;;;7.32;2.67;;;;;;;20.17;78.94;100797.28;5035257;28;20056;-90
2022/09/08 11:48:45;;;;;;;8.40;2.67;;;;;;;20.28;79.13;100789.53;5031981;28;20032;-91
2022/09/08 11:51:58;;;;;;;9.98;2.90;;;;;;;20.30;77.14;100785.03;5025784;28;20036;-90
2022/09/08 11:55:01;;;;;;;8.88;2.67;;;;;;;20.39;76.35;100789.75;5014701;28;20036;-90
2022/09/08 11:58:06;;;;;;;5.55;2.63;;;;;;;20.56;77.90;100785.13;5038132;28;20460;-91
2022/09/08 12:01:27;;;;;;;6.63;2.60;;;;;;;20.77;76.67;100795.09;5064069;28;20175;-90
2022/09/08 12:04:51;;;;;;;8.25;2.70;;;;;;;20.95;75.94;100771.91;5032869;28;20045;-91
2022/09/08 12:08:04;;;;;;;5.95;2.70;;;;;;;21.20;75.71;100773.78;5032748;28;20482;-91
2022/09/08 12:11:01;;;;;;;10.82;3.28;;;;;;;21.10;70.91;100756.84;5032297;28;20137;-90
2022/09/08 12:14:11;;;;;;;;;;;;;;;;;;;;;
2022/09/08 12:17:36;;;;;;;9.43;3.00;;;;;;;21.17;72.59;100747.59;5049454;28;20031;-91
2022/09/08 12:20:35;;;;;;;;;;;;;;;21.29;75.65;100762.56;4981161;28;20022;-90
2022/09/08 12:23:56;;;;;;;6.90;2.72;;;;;;;21.25;71.14;100758.47;4929463;28;20303;-89
2022/09/08 12:26:56;;;;;;;6.85;2.65;;;;;;;21.21;70.33;100751.75;4987729;28;20049;-90
2022/09/08 12:33:20;;;;;;;6.63;2.90;;;;;;;21.21;69.33;100751.75;4961039;28;20503;-90
2022/09/08 12:36:05;;;;;;;4.13;2.47;;;;;;;21.25;65.95;100747.94;4999769;28;20037;-90
2022/09/08 12:39:02;;;;;;;5.38;2.67;;;;;;;21.32;69.10;100745.69;5036893;28;20047;-90
2022/09/08 12:41:56;;;;;;;5.22;2.63;;;;;;;21.43;66.90;100741.34;5034527;28;20051;-90
2022/09/08 12:44:52;;;;;;;5.65;2.35;;;;;;;21.71;66.50;100739.38;5007587;28;20435;-91
2022/09/08 12:48:11;;;;;;;5.22;2.60;;;;;;;21.74;66.88;100734.75;5027453;28;20033;-89
2022/09/08 12:50:52;;;;;;;5.53;2.40;;;;;;;21.64;64.89;100739.00;5034774;28;20090;-90
2022/09/08 12:53:42;;;;;;;4.20;2.30;;;;;;;21.45;64.71;100741.25;5051076;28;20039;-90
2022/09/08 12:56:21;;;;;;;8.27;2.60;;;;;;;21.29;66.53;100747.59;5039194;28;20024;-90
2022/09/08 12:58:49;;;;;;;6.80;2.75;;;;;;;21.18;64.74;100747.50;5049225;28;20041;-90
2022/09/08 13:01:29;;;;;;;5.55;2.60;;;;;;;21.14;65.91;100750.44;5036694;28;20044;-90
2022/09/08 13:03:59;;;;;;;4.65;2.22;;;;;;;21.08;64.18;100741.16;5019969;28;20039;-90
2022/09/08 13:06:39;;;;;;;7.45;2.42;;;;;;;21.12;67.20;100750.53;5048794;28;20067;-90
2022/09/08 13:09:29;;;;;;;3.65;2.17;;;;;;;21.25;66.00;100753.19;5050109;28;20120;-90
2022/09/08 13:12:18;;;;;;;5.60;1.90;;;;;;;21.29;64.07;100750.22;5050321;28;20496;-90
2022/09/08 13:15:26;;;;;;;5.50;1.83;;;;;;;21.24;65.90;100736.53;5050706;28;20539;-90
2022/09/08 13:18:11;;;;;;;5.22;2.03;;;;;;;21.27;64.33;100725.78;5068623;28;20021;-90
2022/09/08 13:20:50;;;;;;;3.47;1.55;;;;;;;21.47;60.56;100747.28;5050721;28;20032;-90
2022/09/08 13:23:30;;;;;;;7.45;2.00;;;;;;;21.49;59.64;100746.22;5068593;28;20405;-89
2022/09/08 13:26:17;;;;;;;6.68;1.98;;;;;;;21.52;63.13;100750.41;5037827;28;20037;-90
2022/09/08 13:29:24;;;;;;;4.60;1.80;;;;;;;21.43;61.75;100738.72;5026598;28;20068;-90
2022/09/08 13:32:14;;;;;;;2.97;1.63;;;;;;;21.35;60.33;100737.59;5028901;28;20054;-88
2022/09/08 13:34:46;;;;;;;5.15;1.63;;;;;;;21.44;60.77;100752.75;5050049;28;20036;-89
2022/09/08 13:37:17;;;;;;;4.40;1.70;;;;;;;21.47;59.87;100744.63;5052430;28;20032;-89
2022/09/08 13:40:11;;;;;;;5.57;1.90;;;;;;;21.43;60.83;100744.00;5054037;28;20085;-89
2022/09/08 13:42:58;;;;;;;7.43;2.25;;;;;;;21.58;60.25;100756.09;5033492;28;20059;-89
2022/09/08 13:45:56;;;;;;;6.20;1.75;;;;;;;21.66;60.63;100755.56;5065360;28;20103;-90
2022/09/08 13:48:45;;;;;;;6.15;1.80;;;;;;;21.60;60.64;100767.41;5054337;28;20055;-90
2022/09/08 13:54:36;;;;;;;5.82;1.67;;;;;;;21.46;62.06;100761.41;5057184;28;20028;-90
2022/09/08 13:57:32;;;;;;;5.60;2.00;;;;;;;21.48;62.74;100765.63;5053096;28;20049;-89
2022/09/08 14:00:02;;;;;;;5.70;2.28;;;;;;;21.58;60.42;100757.91;5053875;28;20028;-89
2022/09/08 14:03:03;;;;;;;7.05;1.98;;;;;;;21.73;62.13;100755.97;5053730;28;20027;-90
2022/09/08 14:05:42;;;;;;;5.80;2.13;;;;;;;21.82;59.27;100764.09;5053282;28;20028;-90
2022/09/08 14:08:13;;;;;;;6.28;1.90;;;;;;;21.84;59.71;100761.31;5051252;28;20016;-89
2022/09/08 14:11:13;;;;;;;7.40;2.42;;;;;;;21.80;61.51;100750.16;5046884;28;20028;-88
2022/09/08 14:13:45;;;;;;;6.93;2.30;;;;;;;21.92;58.69;100751.03;5030460;28;20615;-88
2022/09/08 14:16:29;;;;;;;6.53;2.60;;;;;;;22.03;62.48;100753.81;5026558;28;20032;-88
2022/09/08 14:19:46;;;;;;;6.68;2.20;;;;;;;22.08;60.85;100749.03;5035422;28;20520;-88
2022/09/08 14:22:53;;;;;;;7.13;2.30;;;;;;;21.94;60.90;100747.34;5052108;28;20063;-88
2022/09/08 14:25:32;;;;;;;7.63;2.42;;;;;;;21.80;59.48;100736.94;5017387;28;20037;-88
2022/09/08 14:28:14;;;;;;;6.40;2.45;;;;;;;21.80;58.63;100749.31;5035882;28;20028;-88
2022/09/08 14:31:03;;;;;;;7.10;2.53;;;;;;;21.78;60.14;100745.91;5061625;28;20059;-88
2022/09/08 14:33:40;;;;;;;6.30;2.30;;;;;;;21.74;60.04;100747.94;5048476;28;20028;-88
2022/09/08 14:36:25;;;;;;;6.00;2.40;;;;;;;21.72;58.35;100747.22;5020128;28;20481;-87
2022/09/08 14:39:06;;;;;;;7.95;2.60;;;;;;;21.64;59.24;100750.38;5041520;28;20085;-89
2022/09/08 14:41:53;;;;;;;7.75;2.55;;;;;;;21.49;59.71;100751.50;5038089;28;20021;-89
2022/09/08 14:44:37;;;;;;;5.75;2.30;;;;;;;21.34;58.04;100757.84;5053710;28;20048;-89
2022/09/08 14:47:09;;;;;;;5.90;2.47;;;;;;;21.17;59.24;100751.09;5064834;28;20070;-89
2022/09/08 14:49:50;;;;;;;9.25;2.42;;;;;;;21.05;58.66;100762.44;5045840;28;20021;-89
2022/09/08 14:52:39;;;;;;;7.15;2.30;;;;;;;21.01;61.00;100755.72;5036044;28;20025;-90
2022/09/08 14:55:23;;;;;;;7.90;2.33;;;;;;;20.96;60.22;100770.97;5020365;28;20074;-89
2022/09/08 14:58:15;;;;;;;;;;;;;;;21.05;62.51;100770.38;5044006;28;20076;-89
2022/09/08 15:00:45;;;;;;;6.43;2.17;;;;;;;20.97;59.88;100775.31;5046156;28;19913;-88
2022/09/08 15:03:28;;;;;;;7.32;2.25;;;;;;;20.92;60.10;100777.41;5033483;28;20100;-90
2022/09/08 15:05:54;;;;;;;7.90;1.98;;;;;;;20.87;60.63;100779.53;5036445;28;20673;-89
2022/09/08 15:08:27;;;;;;;6.05;2.40;;;;;;;20.85;60.61;100771.72;5059982;28;20028;-88
2022/09/08 15:11:37;;;;;;;6.57;2.60;;;;;;;20.86;61.97;100777.84;5025367;28;20111;-87
2022/09/08 15:14:12;;;;;;;4.03;1.90;;;;;;;20.78;62.71;100788.88;5009007;28;20061;-87
2022/09/08 15:16:52;;;;;;;9.00;2.10;;;;;;;20.55;64.15;100771.13;5044193;28;20543;-88
2022/09/08 15:19:31;;;;;;;5.95;2.28;;;;;;;20.37;66.70;100774.97;5036717;28;20103;-87
2022/09/08 15:21:58;;;;;;;6.40;2.08;;;;;;;20.13;70.51;100771.28;5051168;28;20017;-88
2022/09/08 15:24:26;;;;;;;5.45;2.40;;;;;;;19.88;71.88;100771.97;5062716;28;20052;-88
2022/09/08 15:27:02;;;;;;;4.90;2.30;;;;;;;19.67;72.75;100763.66;5066897;28;20499;-87
2022/09/08 15:29:41;;;;;;;6.15;2.20;;;;;;;19.54;72.37;100757.47;5050429;28;20522;-88
2022/09/08 15:32:41;;;;;;;6.80;2.30;;;;;;;19.38;73.79;100761.97;5069377;28;20116;-87
2022/09/08 15:35:49;;;;;;;7.00;2.30;;;;;;;19.25;74.97;100748.72;5031310;28;20036;-88
2022/09/08 15:38:26;;;;;;;5.47;2.13;;;;;;;19.15;74.29;100755.47;5013759;28;20051;-87
2022/09/08 15:41:19;;;;;;;8.60;2.28;;;;;;;19.10;75.75;100755.78;5047922;28;20103;-88
2022/09/08 15:44:10;;;;;;;4.68;2.30;;;;;;;19.06;75.92;100751.63;5037471;28;20055;-88
2022/09/08 15:47:01;;;;;;;6.32;2.40;;;;;;;19.15;75.54;100744.97;5012509;28;20032;-88
2022/09/08 15:49:49;;;;;;;5.22;2.60;;;;;;;19.27;76.18;100747.69;5048526;28;20032;-88
2022/09/08 15:52:54;;;;;;;6.03;2.40;;;;;;;19.42;75.31;100745.91;5045226;28;20099;-88
2022/09/08 15:55:40;;;;;;;4.38;2.05;;;;;;;19.57;76.90;100749.41;5051855;28;20314;-88
2022/09/08 15:58:27;;;;;;;7.72;2.35;;;;;;;19.65;75.85;100750.59;5045754;28;20609;-87
2022/09/08 16:01:14;;;;;;;4.47;2.22;;;;;;;19.75;76.51;100744.75;5028585;28;20063;-87
2022/09/08 16:03:52;;;;;;;7.55;1.90;;;;;;;19.85;74.31;100740.63;5039697;28;20070;-87
2022/09/08 16:06:47;;;;;;;4.07;1.63;;;;;;;19.99;73.85;100748.47;5043276;28;20024;-88
2022/09/08 16:09:18;;;;;;;3.63;1.63;;;;;;;20.01;73.64;100752.69;5023646;28;20529;-87
2022/09/08 16:11:59;;;;;;;3.55;1.63;;;;;;;19.98;73.63;100752.06;5053564;28;20032;-87
2022/09/08 16:14:57;;;;;;;6.05;1.90;;;;;;;19.95;73.56;100747.81;5048529;28;20025;-87
2022/09/08 16:17:22;;;;;;;3.53;1.70;;;;;;;19.90;73.83;100746.44;5045617;28;20032;-87
2022/09/08 16:20:06;;;;;;;5.07;1.70;;;;;;;19.95;73.96;100749.59;5060470;28;20047;-89
2022/09/08 16:22:35;;;;;;;3.08;1.58;;;;;;;19.97;72.11;100756.47;5049100;28;20027;-89
2022/09/08 16:25:04;;;;;;;3.63;1.45;;;;;;;20.00;71.77;100755.41;5036158;28;20425;-89
2022/09/08 16:27:53;;;;;;;3.97;1.48;;;;;;;19.98;69.77;100750.28;5059817;28;20517;-89
2022/09/08 16:30:37;;;;;;;5.03;1.80;;;;;;;19.95;69.42;100750.44;5028898;28;20440;-89
2022/09/08 16:33:16;;;;;;;4.28;1.48;;;;;;;19.90;69.98;100746.44;5033094;28;20123;-89
2022/09/08 16:36:11;;;;;;;4.40;1.50;;;;;;;19.85;69.41;100756.41;5042078;28;20037;-89
2022/09/08 16:38:45;;;;;;;3.53;1.50;;;;;;;19.73;69.27;100753.59;5038463;28;20465;-88
2022/09/08 16:41:42;;;;;;;3.22;1.38;;;;;;;19.64;70.07;100748.09;5036442;28;20508;-89
2022/09/08 16:44:46;;;;;;;4.68;1.48;;;;;;;19.54;69.81;100755.69;5017035;28;20068;-89
2022/09/08 16:47:13;;;;;;;3.20;1.42;;;;;;;19.44;69.40;100748.44;5030535;28;20505;-90
2022/09/08 16:49:43;;;;;;;3.28;1.70;;;;;;;19.32;70.49;100753.50;5040556;28;20029;-89
2022/09/08 16:52:25;;;;;;;4.15;1.65;;;;;;;19.21;73.91;100748.06;5031077;28;20067;-89
2022/09/08 16:55:23;;;;;;;6.25;1.67;;;;;;;19.11;73.86;100748.72;5035437;28;20025;-89
2022/09/08 16:58:08;;;;;;;4.85;1.70;;;;;;;19.01;73.31;100750.22;5014698;28;20128;-89
2022/09/08 17:00:57;;;;;;;4.85;2.00;;;;;;;18.93;73.70;100764.66;5046115;28;20031;-89
2022/09/08 17:03:58;;;;;;;3.65;1.80;;;;;;;18.87;74.38;100761.53;5047945;28;20279;-89
2022/09/08 17:06:53;;;;;;;3.78;1.58;;;;;;;18.78;73.09;100767.34;5045826;28;20024;-89
2022/09/08 17:09:43;;;;;;;4.30;1.90;;;;;;;18.68;74.65;100756.53;5043645;28;20040;-89
2022/09/08 17:12:13;;;;;;;5.68;1.80;;;;;;;18.59;74.20;100746.56;5030270;28;20056;-89
2022/09/08 17:14:39;;;;;;;4.05;1.60;;;;;;;18.52;77.00;100755.69;5058521;28;20035;-89
2022/09/08 17:17:46;;;;;;;4.47;1.60;;;;;;;18.47;75.82;100749.88;5037875;28;20025;-89
2022/09/08 17:20:25;;;;;;;3.67;1.40;;;;;;;18.37;77.57;100757.44;5040931;28;20032;-89
2022/09/08 17:23:06;;;;;;;3.80;1.50;;;;;;;18.29;78.11;100753.53;5037871;28;20033;-89
2022/09/08 17:25:51;;;;;;;4.47;1.50;;;;;;;18.23;77.63;100748.63;5045910;28;20024;-89
2022/09/08 17:28:44;;;;;;;3.40;1.63;;;;;;;18.14;78.72;100752.66;5057051;28;20505;-89
2022/09/08 17:31:34;;;;;;;6.40;1.95;;;;;;;18.04;78.74;100759.34;5034578;28;20056;-88
2022/09/08 17:34:19;;;;;;;5.55;2.10;;;;;;;17.94;79.80;100755.56;5055650;28;20036;-89